KOPN

Thomaston-Upson County Airport

Thomaston, Georgia, USA
METAR KOPN 200055Z AUTO 00000KT 10SM CLR 05/M20 A3025 RMK AO2
Observed Flight Rules
Jan-20 @ 00:55 UTC (24 minutes ago) Visual Flight Rules
Wind Visibility Clouds
Calm 10 miles
  • Clear skies
Temperatures Readings
Current 5°C / 41°F
Dewpoint -20°C / -4°F
Humidity 14%
Altimeter 30.25" Hg
Pressure 1024 hPa
Elevation 243
METAR KOPN 200055Z AUTO 00000KT 10SM CLR 05/M20 A3025 RMK AO2
Observed Flight Rules
Jan-20 @ 00:55 UTC
(24 minutes ago)
VFR
Wind Visibility
Calm 10 miles
Clouds
  • Clear skies
Temperature Dewpoint
5°C / 41°F -20°C / -4°F
Humidity Altimeter Pressure
14% 30.25" Hg 1024 hPa